Time;durP1;ratioP1;P1;durP2;ratioP2;P2;SDS_P1;SDS_P2;PMS_P1;PMS_P2;Temp;Humidity;BMP_temperature;BMP_pressure;BME280_temperature;BME280_humidity;BME280_pressure;Samples;Min_cycle;Max_cycle;Signal;HPM_P1;HPM_P2
2023/05/04 00:01:36;;;;;;;;;;;;;;;8.77;64.72;102269.38;5065251;28;1279;-79
2023/05/04 00:04:02;;;;;;;;;;;;;;;8.74;65.41;102259.19;5063236;28;1250;-78
2023/05/04 00:06:27;;;;;;;;;;;;;;;8.72;65.81;102266.22;5065895;28;1027;-77
2023/05/04 00:08:52;;;;;;;;;;;;;;;8.71;64.69;102254.16;5070602;28;1334;-77
2023/05/04 00:11:18;;;;;;;;;;;;;;;8.69;66.19;102249.06;5066689;28;1890;-78
2023/05/04 00:13:43;;;;;;;;;;;;;;;8.64;65.90;102247.63;5079364;28;1322;-77
2023/05/04 00:16:08;;;;;;;;;;;;;;;8.59;65.39;102234.09;5067347;28;1297;-77
2023/05/04 00:18:33;;;;;;;;;;;;;;;8.58;65.47;102229.84;5063749;28;1277;-77
2023/05/04 00:20:59;;;;;;;;;;;;;;;8.54;65.79;102220.56;5067353;28;1211;-77
2023/05/04 00:23:25;;;;;;;;;;;;;;;8.48;66.26;102222.53;5064250;28;1224;-77
2023/05/04 00:25:50;;;;;;;;;;;;;;;8.44;66.54;102220.22;5069625;28;1228;-77
2023/05/04 00:28:15;;;;;;;;;;;;;;;8.41;66.53;102226.34;5075832;28;3600;-77
2023/05/04 00:30:41;;;;;;;;;;;;;;;8.38;66.76;102223.94;5068416;28;1910;-76
2023/05/04 00:33:06;;;;;;;;;;;;;;;8.36;67.04;102211.97;5068630;28;1053;-77
2023/05/04 00:35:31;;;;;;;;;;;;;;;8.29;67.73;102214.00;5061750;28;1533;-77
2023/05/04 00:37:56;;;;;;;;;;;;;;;8.25;68.11;102215.91;5067854;28;1195;-79
2023/05/04 00:40:22;;;;;;;;;;;;;;;8.23;67.70;102212.56;5067609;28;1503;-77
2023/05/04 00:42:47;;;;;;;;;;;;;;;8.19;67.93;102210.19;5065018;28;1159;-77
2023/05/04 00:45:13;;;;;;;;;;;;;;;8.14;68.36;102207.00;5067535;28;1568;-78
2023/05/04 00:47:39;;;;;;;;;;;;;;;8.13;68.29;102201.00;5062272;28;1207;-76
2023/05/04 00:50:05;;;;;;;;;;;;;;;8.11;68.67;102204.59;5063058;28;1902;-77
2023/05/04 00:52:30;;;;;;;;;;;;;;;8.03;69.63;102191.19;5060450;28;1207;-78
2023/05/04 00:54:56;;;;;;;;;;;;;;;7.99;68.80;102199.09;5067854;28;1266;-77
2023/05/04 00:57:22;;;;;;;;;;;;;;;7.95;69.40;102189.81;5066806;28;1575;-77
2023/05/04 00:59:47;;;;;;;;;;;;;;;7.90;70.05;102194.38;5068384;28;1108;-77
2023/05/04 01:02:12;;;;;;;;;;;;;;;7.90;70.04;102186.63;5064733;28;1244;-76
2023/05/04 01:04:37;;;;;;;;;;;;;;;7.85;70.01;102185.19;5063382;28;1683;-76
2023/05/04 01:07:12;;;;;;;;;;;;;;;7.83;70.33;102187.00;5059812;28;1151;-77
2023/05/04 01:09:48;;;;;;;;;;;;;;;7.93;70.24;102178.75;5066709;28;1969;-77
2023/05/04 01:12:43;;;;;;;;;;;;;;;7.85;69.97;102183.44;5065909;28;1289;-77
2023/05/04 01:15:09;;;;;;;;;;;;;;;7.80;71.32;102182.84;5051243;28;1334;-77
2023/05/04 01:17:34;;;;;;;;;;;;;;;7.77;71.01;102182.13;5063807;28;1486;-77
2023/05/04 01:19:59;;;;;;;;;;;;;;;7.73;71.28;102182.28;5063870;28;1223;-76
2023/05/04 01:22:25;;;;;;;;;;;;;;;7.74;71.40;102177.94;5055044;28;1290;-77
2023/05/04 01:24:50;;;;;;;;;;;;;;;7.67;71.57;102176.56;5059784;28;1557;-77
2023/05/04 01:27:21;;;;;;;;;;;;;;;7.66;71.48;102174.91;5062773;28;1546;-77
2023/05/04 01:29:56;;;;;;;;;;;;;;;7.66;71.51;102169.72;5064552;28;1910;-77
2023/05/04 01:32:22;;;;;;;;;;;;;;;7.63;71.53;102175.06;5067474;28;1279;-77
2023/05/04 01:34:48;;;;;;;;;;;;;;;7.61;71.79;102172.53;5063719;28;1492;-77
2023/05/04 01:37:13;;;;;;;;;;;;;;;7.55;72.13;102174.56;5081234;28;1251;-78
2023/05/04 01:39:38;;;;;;;;;;;;;;;7.53;72.71;102168.66;5064236;28;1576;-78
2023/05/04 01:42:04;;;;;;;;;;;;;;;7.48;73.36;102170.63;5064996;28;1182;-77
2023/05/04 01:44:29;;;;;;;;;;;;;;;7.49;72.96;102178.28;5060717;28;1314;-77
2023/05/04 01:46:54;;;;;;;;;;;;;;;7.41;73.73;102165.75;5067096;28;1235;-77
2023/05/04 01:49:19;;;;;;;;;;;;;;;7.40;73.60;102174.41;5054063;28;1437;-77
2023/05/04 01:51:45;;;;;;;;;;;;;;;7.39;73.45;102172.69;5059974;28;1898;-77
2023/05/04 01:54:11;;;;;;;;;;;;;;;7.40;73.44;102169.22;5075211;28;1495;-77
2023/05/04 01:56:36;;;;;;;;;;;;;;;7.33;73.60;102178.16;5065873;28;1210;-77
2023/05/04 01:59:01;;;;;;;;;;;;;;;7.34;73.61;102169.53;5062177;28;1575;-79
2023/05/04 02:01:26;;;;;;;;;;;;;;;7.33;73.67;102165.25;5077012;28;1274;-77
2023/05/04 02:03:52;;;;;;;;;;;;;;;7.32;74.24;102165.31;5066189;28;1130;-78
2023/05/04 02:06:17;;;;;;;;;;;;;;;7.30;73.82;102167.97;5067409;28;1587;-76
2023/05/04 02:08:42;;;;;;;;;;;;;;;7.31;74.04;102164.50;5064013;28;1270;-78
2023/05/04 02:11:07;;;;;;;;;;;;;;;7.30;74.41;102162.81;5054711;28;1885;-77
2023/05/04 02:13:33;;;;;;;;;;;;;;;7.29;74.03;102160.31;5056572;28;1172;-77
2023/05/04 02:15:58;;;;;;;;;;;;;;;7.31;74.42;102174.81;5065169;28;1215;-77
2023/05/04 02:18:23;;;;;;;;;;;;;;;7.24;73.96;102165.69;5061225;28;1248;-77
2023/05/04 02:20:48;;;;;;;;;;;;;;;7.23;75.32;102161.44;5065364;28;1220;-77
2023/05/04 02:23:14;;;;;;;;;;;;;;;7.23;74.43;102161.44;5062323;28;2075;-77
2023/05/04 02:25:40;;;;;;;;;;;;;;;7.21;73.88;102165.81;5059894;28;1595;-77
2023/05/04 02:28:05;;;;;;;;;;;;;;;7.20;75.20;102156.41;5057215;28;1491;-76
2023/05/04 02:30:31;;;;;;;;;;;;;;;7.16;74.93;102150.53;5080815;28;1894;-77
2023/05/04 02:32:56;;;;;;;;;;;;;;;7.16;74.99;102152.28;5056707;28;1282;-77
2023/05/04 02:35:21;;;;;;;;;;;;;;;7.14;75.39;102146.38;5070788;28;1140;-77
2023/05/04 02:37:46;;;;;;;;;;;;;;;7.17;74.89;102156.56;5059941;28;1187;-78
2023/05/04 02:40:12;;;;;;;;;;;;;;;7.07;75.35;102150.16;5065521;28;1302;-77
2023/05/04 02:42:37;;;;;;;;;;;;;;;7.02;76.08;102152.09;5063205;28;1151;-76
2023/05/04 02:45:02;;;;;;;;;;;;;;;7.00;75.52;102148.75;5061576;28;1223;-76
2023/05/04 02:47:27;;;;;;;;;;;;;;;6.98;75.58;102145.38;5061394;28;1497;-77
2023/05/04 02:49:53;;;;;;;;;;;;;;;6.95;75.94;102150.72;5065152;28;1898;-76
2023/05/04 02:52:18;;;;;;;;;;;;;;;6.92;76.00;102134.44;5060288;28;1638;-76
2023/05/04 02:54:43;;;;;;;;;;;;;;;6.91;75.97;102150.81;5063255;28;1302;-77
2023/05/04 02:57:08;;;;;;;;;;;;;;;6.80;77.13;102137.56;5059550;28;1267;-77
2023/05/04 02:59:34;;;;;;;;;;;;;;;6.76;77.36;102141.19;5066107;28;1645;-76
2023/05/04 03:01:59;;;;;;;;;;;;;;;6.75;76.32;102134.38;5059759;28;1283;-77
2023/05/04 03:04:25;;;;;;;;;;;;;;;6.77;76.91;102137.72;5064370;28;1321;-76
2023/05/04 03:06:50;;;;;;;;;;;;;;;6.75;75.93;102134.38;5056659;28;1295;-77
2023/05/04 03:09:15;;;;;;;;;;;;;;;6.75;76.30;102134.38;5066420;28;1329;-76
2023/05/04 03:11:40;;;;;;;;;;;;;;;6.72;76.77;102134.50;5057031;28;1957;-79
2023/05/04 03:14:06;;;;;;;;;;;;;;;6.67;76.28;102125.31;5069491;28;1067;-77
2023/05/04 03:16:31;;;;;;;;;;;;;;;6.63;77.34;102132.34;5069913;28;1414;-77
2023/05/04 03:18:57;;;;;;;;;;;;;;;6.60;77.45;102122.19;5064302;28;1316;-77
2023/05/04 03:21:22;;;;;;;;;;;;;;;6.59;76.99;102128.22;5060754;28;1257;-76
2023/05/04 03:23:47;;;;;;;;;;;;;;;6.59;77.82;102123.06;5064926;28;960;-78
2023/05/04 03:26:12;;;;;;;;;;;;;;;6.57;77.83;102124.88;5082890;28;1238;-76
2023/05/04 03:28:37;;;;;;;;;;;;;;;6.56;78.15;102125.78;5065629;28;1513;-77
2023/05/04 03:31:03;;;;;;;;;;;;;;;6.50;77.57;102118.31;5069383;28;1934;-77
2023/05/04 03:33:28;;;;;;;;;;;;;;;6.46;78.32;102117.59;5072423;28;1214;-77
2023/05/04 03:35:53;;;;;;;;;;;;;;;6.45;78.60;102121.09;5064401;28;1302;-77
2023/05/04 03:38:18;;;;;;;;;;;;;;;6.45;77.56;102117.69;5062387;28;1275;-77
2023/05/04 03:40:43;;;;;;;;;;;;;;;6.44;77.92;102113.44;5069007;28;1235;-77
2023/05/04 03:43:09;;;;;;;;;;;;;;;6.40;78.38;102107.56;5068207;28;1130;-77
2023/05/04 03:45:34;;;;;;;;;;;;;;;6.37;79.15;102113.69;5068821;28;1247;-77
2023/05/04 03:47:59;;;;;;;;;;;;;;;6.38;78.46;102109.38;5067719;28;1183;-76
2023/05/04 03:50:25;;;;;;;;;;;;;;;6.38;77.51;102110.22;5065757;28;1898;-77
2023/05/04 03:52:50;;;;;;;;;;;;;;;6.34;78.69;102110.41;5070182;28;1361;-77
2023/05/04 03:55:15;;;;;;;;;;;;;;;6.31;78.83;102098.50;5080960;28;1348;-76
2023/05/04 03:57:41;;;;;;;;;;;;;;;6.45;78.01;102104.78;5061470;28;1245;-77
2023/05/04 04:00:06;;;;;;;;;;;;;;;6.30;78.17;102099.38;5061351;28;1208;-76
2023/05/04 04:02:31;;;;;;;;;;;;;;;6.33;78.22;102094.13;5064135;28;1235;-77
2023/05/04 04:04:57;;;;;;;;;;;;;;;6.26;78.96;102100.44;5068946;28;1170;-77
2023/05/04 04:07:22;;;;;;;;;;;;;;;6.21;78.51;102084.34;5072425;28;1433;-77
2023/05/04 04:09:47;;;;;;;;;;;;;;;6.25;79.65;102088.47;5072527;28;1901;-78
2023/05/04 04:12:14;;;;;;;;;;;;;;;6.22;79.23;102092.91;5066723;28;1399;-77
2023/05/04 04:14:40;;;;;;;;;;;;;;;6.20;78.65;102092.97;5062468;28;1560;-77
2023/05/04 04:17:05;;;;;;;;;;;;;;;6.20;79.65;102090.41;5065871;28;1107;-77
2023/05/04 04:19:30;;;;;;;;;;;;;;;6.19;79.00;102093.03;5061104;28;1312;-76
2023/05/04 04:21:58;;;;;;;;;;;;;;;6.24;78.57;102089.34;5064851;28;1384;-76
2023/05/04 04:24:23;;;;;;;;;;;;;;;6.18;79.07;102089.63;5060919;28;1086;-77
2023/05/04 04:26:49;;;;;;;;;;;;;;;6.16;80.28;102083.69;5067485;28;1179;-77
2023/05/04 04:29:14;;;;;;;;;;;;;;;6.16;79.33;102083.69;5062769;28;1150;-77
2023/05/04 04:31:39;;;;;;;;;;;;;;;6.14;79.42;102080.38;5062630;28;1886;-77
2023/05/04 04:34:04;;;;;;;;;;;;;;;6.17;79.16;102085.38;5064378;28;1328;-77
2023/05/04 04:36:29;;;;;;;;;;;;;;;6.16;80.26;102083.69;5066047;28;1223;-77
2023/05/04 04:38:55;;;;;;;;;;;;;;;6.16;79.56;102081.13;5061459;28;1497;-77
2023/05/04 04:41:20;;;;;;;;;;;;;;;6.16;80.80;102088.03;5062793;28;1388;-77
2023/05/04 04:43:46;;;;;;;;;;;;;;;6.15;80.43;102082.03;5076700;28;1307;-77
2023/05/04 04:46:11;;;;;;;;;;;;;;;6.15;80.04;102082.03;5056953;28;1359;-77
2023/05/04 04:48:36;;;;;;;;;;;;;;;6.18;80.21;102092.19;5061346;28;1468;-77
2023/05/04 04:51:01;;;;;;;;;;;;;;;6.18;80.34;102087.03;5058004;28;1957;-77
2023/05/04 04:53:27;;;;;;;;;;;;;;;6.22;79.99;102098.06;5082639;28;1227;-77
2023/05/04 04:55:52;;;;;;;;;;;;;;;6.19;80.74;102093.84;5058910;28;1314;-78
2023/05/04 04:58:18;;;;;;;;;;;;;;;6.22;79.82;102093.75;5065361;28;1313;-78
2023/05/04 05:00:44;;;;;;;;;;;;;;;6.23;80.71;102085.09;5067396;28;1219;-77
2023/05/04 05:03:09;;;;;;;;;;;;;;;6.26;80.42;102090.13;5065999;28;1421;-77
2023/05/04 05:05:35;;;;;;;;;;;;;;;6.28;80.36;102092.63;5064981;28;1251;-77
2023/05/04 05:08:01;;;;;;;;;;;;;;;6.27;80.12;102088.41;5065864;28;1349;-77
2023/05/04 05:10:26;;;;;;;;;;;;;;;6.28;80.41;102092.63;5084070;28;1922;-77
2023/05/04 05:12:51;;;;;;;;;;;;;;;6.30;80.77;102101.97;5069974;28;1246;-77
2023/05/04 05:15:16;;;;;;;;;;;;;;;6.31;80.92;102095.09;5062017;28;1251;-78
2023/05/04 05:17:42;;;;;;;;;;;;;;;6.31;81.02;102083.06;5064868;28;1216;-77
2023/05/04 05:20:10;;;;;;;;;;;;;;;6.35;80.49;102084.56;5057338;28;1072;-77
2023/05/04 05:22:39;;;;;;;;;;;;;;;6.38;80.44;102084.44;5066053;28;1279;-76
2023/05/04 05:25:05;;;;;;;;;;;;;;;6.43;80.80;102086.00;5067864;28;1235;-77
2023/05/04 05:27:31;;;;;;;;;;;;;;;6.46;81.32;102080.69;5062495;28;1265;-77
2023/05/04 05:29:56;;;;;;;;;;;;;;;6.49;81.44;102090.88;5063395;28;1976;-77
2023/05/04 05:32:21;;;;;;;;;;;;;;;6.51;81.06;102089.06;5066515;28;1362;-77
2023/05/04 05:34:47;;;;;;;;;;;;;;;6.52;80.58;102080.41;5066525;28;1239;-77
2023/05/04 05:37:12;;;;;;;;;;;;;;;6.53;80.58;102082.09;5080307;28;1399;-76
2023/05/04 05:39:37;;;;;;;;;;;;;;;6.55;81.28;102077.72;5068188;28;1401;-76
2023/05/04 05:42:02;;;;;;;;;;;;;;;6.58;80.51;102080.97;5066014;28;1103;-77
2023/05/04 05:44:28;;;;;;;;;;;;;;;6.63;81.09;102083.34;5064783;28;1468;-78
2023/05/04 05:46:53;;;;;;;;;;;;;;;6.64;81.35;102085.03;5064541;28;1171;-78
2023/05/04 05:49:18;;;;;;;;;;;;;;;6.73;81.13;102083.78;5063074;28;1172;-77
2023/05/04 05:51:43;;;;;;;;;;;;;;;6.72;81.17;102082.94;5064264;28;1910;-77
2023/05/04 05:54:09;;;;;;;;;;;;;;;6.81;80.59;102072.19;5065090;28;1311;-77
2023/05/04 05:56:34;;;;;;;;;;;;;;;6.85;81.63;102073.75;5065813;28;1047;-77
2023/05/04 05:58:59;;;;;;;;;;;;;;;6.93;80.22;102079.38;5061282;28;1501;-77
2023/05/04 06:01:25;;;;;;;;;;;;;;;7.02;81.54;102079.88;5062484;28;1220;-77
2023/05/04 06:03:50;;;;;;;;;;;;;;;7.07;80.70;102075.34;5065454;28;1330;-77
2023/05/04 06:06:16;;;;;;;;;;;;;;;7.11;80.88;102066.53;5061645;28;1253;-77
2023/05/04 06:08:41;;;;;;;;;;;;;;;7.16;79.79;102072.31;5053198;28;1196;-78
2023/05/04 06:11:06;;;;;;;;;;;;;;;7.25;79.98;102060.72;5065881;28;1979;-77
2023/05/04 06:13:31;;;;;;;;;;;;;;;7.30;80.35;102059.59;5057133;28;1192;-77
2023/05/04 06:15:57;;;;;;;;;;;;;;;7.38;80.57;102057.47;5082719;28;1123;-76
2023/05/04 06:18:22;;;;;;;;;;;;;;;7.43;79.92;102060.66;5058131;28;1308;-77
2023/05/04 06:20:47;;;;;;;;;;;;;;;7.48;80.19;102055.28;5060729;28;1089;-77
2023/05/04 06:23:13;;;;;;;;;;;;;;;7.55;79.86;102053.22;5065464;28;1198;-76
2023/05/04 06:25:39;;;;;;;;;;;;;;;7.62;80.13;102050.25;5062930;28;1138;-77
2023/05/04 06:28:04;;;;;;;;;;;;;;;7.69;79.93;102045.66;5064908;28;1350;-77
2023/05/04 06:30:30;;;;;;;;;;;;;;;7.72;79.18;102042.91;5060791;28;1902;-77
2023/05/04 06:32:55;;;;;;;;;;;;;;;7.87;78.97;102047.31;5064081;28;1161;-76
2023/05/04 06:35:20;;;;;;;;;;;;;;;7.92;79.03;102040.16;5055651;28;1358;-76
2023/05/04 06:37:45;;;;;;;;;;;;;;;7.93;79.92;102033.25;5062067;28;1538;-77
2023/05/04 06:40:11;;;;;;;;;;;;;;;8.03;78.88;102033.59;5059570;28;1245;-77
2023/05/04 06:42:36;;;;;;;;;;;;;;;8.08;79.07;102031.59;5058384;28;1321;-77
2023/05/04 06:45:01;;;;;;;;;;;;;;;8.14;79.12;102034.72;5066417;28;1236;-77
2023/05/04 06:47:27;;;;;;;;;;;;;;;8.19;78.66;102027.53;5063703;28;1329;-77
2023/05/04 06:49:52;;;;;;;;;;;;;;;8.28;78.20;102030.56;5065893;28;1934;-77
2023/05/04 06:52:17;;;;;;;;;;;;;;;8.33;78.47;102026.84;5066318;28;1288;-77
2023/05/04 06:54:43;;;;;;;;;;;;;;;8.38;78.12;102019.72;5056001;28;1534;-77
2023/05/04 06:57:08;;;;;;;;;;;;;;;8.45;78.25;102031.38;5063365;28;1306;-77
2023/05/04 06:59:33;;;;;;;;;;;;;;;8.50;78.03;102024.22;5061248;28;1219;-77
2023/05/04 07:01:58;;;;;;;;;;;;;;;8.58;77.66;102022.97;5064316;28;1397;-77
2023/05/04 07:04:23;;;;;;;;;;;;;;;8.60;77.58;102028.88;5062950;28;1272;-77
2023/05/04 07:06:49;;;;;;;;;;;;;;;8.66;77.89;102029.41;5059031;28;1200;-77
2023/05/04 07:09:15;;;;;;;;;;;;;;;8.73;77.31;102025.56;5060928;28;1243;-77
2023/05/04 07:11:40;;;;;;;;;;;;;;;8.81;77.14;102022.53;5066117;28;1953;-78
2023/05/04 07:14:05;;;;;;;;;;;;;;;8.90;77.25;102021.22;5060857;28;1254;-78
2023/05/04 07:16:31;;;;;;;;;;;;;;;9.00;76.83;102018.03;5064889;28;1580;-78
2023/05/04 07:18:57;;;;;;;;;;;;;;;9.02;76.58;102016.19;5061721;28;1502;-77
2023/05/04 07:21:22;;;;;;;;;;;;;;;9.16;76.69;102011.97;5068249;28;1084;-77
2023/05/04 07:23:47;;;;;;;;;;;;;;;9.22;77.04;102011.63;5062021;28;1268;-78
2023/05/04 07:26:12;;;;;;;;;;;;;;;9.29;76.56;102000.84;5063877;28;1447;-79
2023/05/04 07:28:37;;;;;;;;;;;;;;;9.42;76.53;102002.75;5058663;28;1593;-77
2023/05/04 07:31:03;;;;;;;;;;;;;;;9.44;76.44;102001.72;5060758;28;1957;-78
2023/05/04 07:33:28;;;;;;;;;;;;;;;9.52;75.18;101999.53;5063005;28;1333;-77
2023/05/04 07:35:57;;;;;;;;;;;;;;;9.61;75.59;102005.09;5061412;28;1232;-77
2023/05/04 07:38:23;;;;;;;;;;;;;;;9.67;75.27;101996.94;5064235;28;1227;-77
2023/05/04 07:40:49;;;;;;;;;;;;;;;9.76;75.37;101993.81;5064972;28;1191;-77
2023/05/04 07:43:14;;;;;;;;;;;;;;;9.87;75.49;101994.03;5062754;28;1262;-77
2023/05/04 07:45:39;;;;;;;;;;;;;;;9.98;75.47;101996.81;5061701;28;1293;-78
2023/05/04 07:48:05;;;;;;;;;;;;;;;10.16;74.70;102001.78;5053636;28;1222;-78
2023/05/04 07:50:31;;;;;;;;;;;;;;;10.20;73.87;102001.50;5079187;28;1905;-78
2023/05/04 07:52:56;;;;;;;;;;;;;;;10.25;74.06;101990.88;5064983;28;1327;-77
2023/05/04 07:55:23;;;;;;;;;;;;;;;10.39;74.42;101988.28;5061992;28;1434;-78
2023/05/04 07:57:48;;;;;;;;;;;;;;;10.45;72.88;101990.50;5080020;28;1280;-78
2023/05/04 08:00:14;;;;;;;;;;;;;;;10.55;73.84;101985.53;5074336;28;1243;-77
2023/05/04 08:02:40;;;;;;;;;;;;;;;10.64;74.26;101982.38;5066762;28;1172;-77
2023/05/04 08:05:06;;;;;;;;;;;;;;;10.78;73.63;101982.34;5066828;28;1412;-78
2023/05/04 08:07:31;;;;;;;;;;;;;;;10.85;72.35;101977.59;5068288;28;1191;-77
2023/05/04 08:09:56;;;;;;;;;;;;;;;10.94;71.79;101974.38;5063735;28;1951;-77
2023/05/04 08:12:22;;;;;;;;;;;;;;;11.00;71.91;101971.38;5079897;28;1255;-78
2023/05/04 08:14:48;;;;;;;;;;;;;;;11.08;71.35;101969.13;5065895;28;1280;-77
2023/05/04 08:17:13;;;;;;;;;;;;;;;11.14;70.73;101970.50;5075754;28;1266;-78
2023/05/04 08:19:38;;;;;;;;;;;;;;;11.25;71.69;101964.59;5064104;28;1176;-78
2023/05/04 08:22:03;;;;;;;;;;;;;;;11.37;70.88;101975.00;5079603;28;1210;-78
2023/05/04 08:24:30;;;;;;;;;;;;;;;11.46;71.19;101973.53;5067019;28;1215;-78
2023/05/04 08:26:55;;;;;;;;;;;;;;;11.61;70.00;101966.50;5067682;28;1291;-79
2023/05/04 08:29:21;;;;;;;;;;;;;;;11.64;69.99;101961.94;5063969;28;1510;-78
2023/05/04 08:31:46;;;;;;;;;;;;;;;11.73;69.47;101954.44;5060967;28;1965;-78
2023/05/04 08:34:11;;;;;;;;;;;;;;;11.81;70.08;101952.13;5059420;28;1227;-77
2023/05/04 08:36:36;;;;;;;;;;;;;;;11.89;69.48;101960.28;5068870;28;1070;-78
2023/05/04 08:39:02;;;;;;;;;;;;;;;11.98;70.24;101943.19;5062691;28;1396;-77
2023/05/04 08:41:27;;;;;;;;;;;;;;;12.05;68.55;101936.66;5058887;28;1229;-77
2023/05/04 08:43:53;;;;;;;;;;;;;;;12.13;69.60;101927.34;5066665;28;1296;-78
2023/05/04 08:46:18;;;;;;;;;;;;;;;12.28;68.19;101935.03;5069023;28;1171;-78
2023/05/04 08:48:43;;;;;;;;;;;;;;;12.35;68.42;101937.06;5063218;28;1320;-77
2023/05/04 08:51:09;;;;;;;;;;;;;;;12.42;68.90;101940.91;5064063;28;1914;-77
2023/05/04 08:53:36;;;;;;;;;;;;;;;12.57;69.32;101936.38;5069553;28;1263;-77
2023/05/04 08:56:03;;;;;;;;;;;;;;;12.72;68.53;101935.25;5066352;28;1107;-77
2023/05/04 08:58:28;;;;;;;;;;;;;;;12.83;66.80;101936.22;5065778;28;1354;-78
2023/05/04 09:00:54;;;;;;;;;;;;;;;12.87;67.45;101937.69;5073525;28;1337;-77
2023/05/04 09:03:19;;;;;;;;;;;;;;;13.01;67.02;101929.66;5066959;28;1193;-78
2023/05/04 09:05:45;;;;;;;;;;;;;;;13.06;66.84;101927.56;5061453;28;1163;-78
2023/05/04 09:08:10;;;;;;;;;;;;;;;13.15;66.99;101921.66;5057570;28;1073;-78
2023/05/04 09:10:35;;;;;;;;;;;;;;;13.24;65.69;101920.16;5066907;28;1906;-78
2023/05/04 09:13:00;;;;;;;;;;;;;;;13.36;65.45;101915.81;5064002;28;1079;-78
2023/05/04 09:15:26;;;;;;;;;;;;;;;13.37;65.58;101909.66;5057451;28;1075;-78
2023/05/04 09:18:00;;;;;;;;;;;;;;;13.43;64.81;101904.00;5064133;28;1128;-77
2023/05/04 09:20:26;;;;;;;;;;;;;;;13.50;65.73;101900.78;5059055;28;1100;-78
2023/05/04 09:23:06;;;;;;;;;;;;;;;13.56;64.77;101899.47;5063737;28;1222;-78
2023/05/04 09:25:31;;;;;;;;;;;;;;;13.63;64.82;101900.66;5068206;28;1051;-78
2023/05/04 09:27:57;;;;;;;;;;;;;;;13.75;64.76;101894.50;5066599;28;1174;-78
2023/05/04 09:30:22;;;;;;;;;;;;;;;13.86;64.74;101892.81;5064157;28;1951;-77
2023/05/04 09:32:48;;;;;;;;;;;;;;;14.03;64.44;101889.72;5066083;28;1290;-77
2023/05/04 09:35:13;;;;;;;;;;;;;;;14.16;63.66;101897.41;5063110;28;1259;-77
2023/05/04 09:37:45;;;;;;;;;;;;;;;14.21;63.63;101895.25;5062703;28;1108;-78
2023/05/04 09:40:11;;;;;;;;;;;;;;;14.30;63.41;101890.13;5079445;28;1232;-78
2023/05/04 09:42:37;;;;;;;;;;;;;;;14.39;62.45;101879.88;5062210;28;2325;-78
2023/05/04 09:45:03;;;;;;;;;;;;;;;14.47;63.43;101880.97;5063107;28;1432;-78
2023/05/04 09:47:33;;;;;;;;;;;;;;;14.55;62.12;101875.13;5078886;28;1381;-78
2023/05/04 09:49:59;;;;;;;;;;;;;;;14.65;62.77;101880.44;5077779;28;1901;-78
2023/05/04 09:52:27;;;;;;;;;;;;;;;14.74;62.91;101867.44;5060539;28;1260;-78
2023/05/04 09:54:52;;;;;;;;;;;;;;;14.86;62.29;101871.66;5063381;28;1567;-78
2023/05/04 09:57:19;;;;;;;;;;;;;;;14.98;61.59;101874.19;5065597;28;1593;-78
2023/05/04 09:59:44;;;;;;;;;;;;;;;15.11;61.94;101875.66;5056670;28;1315;-79
2023/05/04 10:02:11;;;;;;;;;;;;;;;15.24;62.71;101864.16;5061244;28;1140;-79
2023/05/04 10:04:37;;;;;;;;;;;;;;;15.39;62.59;101868.91;5065013;28;1334;-78
2023/05/04 10:07:02;;;;;;;;;;;;;;;15.57;62.37;101866.50;5064670;28;1120;-79
2023/05/04 10:09:28;;;;;;;;;;;;;;;15.74;61.56;101851.19;5050375;28;1168;-78
2023/05/04 10:11:55;;;;;;;;;;;;;;;15.90;61.27;101857.56;5059644;28;1898;-78
2023/05/04 10:14:21;;;;;;;;;;;;;;;16.06;59.12;101851.81;5066510;28;1513;-78
2023/05/04 10:16:52;;;;;;;;;;;;;;;16.17;59.97;101832.50;5061943;28;1128;-79
2023/05/04 10:19:43;;;;;;;;;;;;;;;16.31;58.48;101839.97;5076465;28;1416;-78
2023/05/04 10:22:24;;;;;;;;;;;;;;;16.37;59.62;101844.66;5048767;28;1235;-78
2023/05/04 10:24:58;;;;;;;;;;;;;;;16.50;57.64;101835.69;5057141;28;1104;-79
2023/05/04 10:27:32;;;;;;;;;;;;;;;16.66;56.60;101838.56;5064678;28;1326;-79
2023/05/04 10:29:57;;;;;;;;;;;;;;;16.82;55.72;101830.97;5054412;28;1890;-79
2023/05/04 10:32:23;;;;;;;;;;;;;;;16.93;54.46;101824.75;5059346;28;1224;-80
2023/05/04 10:34:48;;;;;;;;;;;;;;;17.02;53.37;101817.81;5053708;28;1326;-78
2023/05/04 10:37:18;;;;;;;;;;;;;;;17.14;55.00;101806.19;5062836;28;1200;-79
2023/05/04 10:39:49;;;;;;;;;;;;;;;17.23;54.58;101811.41;5056082;28;1238;-78
2023/05/04 10:42:15;;;;;;;;;;;;;;;17.37;54.48;101799.59;5057353;28;1254;-78
2023/05/04 10:44:50;;;;;;;;;;;;;;;17.45;52.31;101794.47;5067773;28;1406;-78
2023/05/04 10:47:25;;;;;;;;;;;;;;;17.55;52.71;101798.81;5063841;28;1192;-78
2023/05/04 10:49:59;;;;;;;;;;;;;;;17.62;52.99;101790.22;5056774;28;1176;-79
2023/05/04 10:52:24;;;;;;;;;;;;;;;17.69;53.39;101786.03;5057714;28;1172;-78
2023/05/04 10:54:57;;;;;;;;;;;;;;;17.80;53.49;101777.16;5055846;28;1495;-79
2023/05/04 10:57:22;;;;;;;;;;;;;;;17.88;52.55;101769.34;5064386;28;1156;-78
2023/05/04 10:59:57;;;;;;;;;;;;;;;17.99;53.49;101771.75;5054209;28;1335;-79
2023/05/04 11:02:23;;;;;;;;;;;;;;;18.21;53.63;101770.47;5055375;28;1242;-79
2023/05/04 11:05:05;;;;;;;;;;;;;;;18.41;52.13;101770.25;5061225;28;1290;-78
2023/05/04 11:07:37;;;;;;;;;;;;;;;18.50;50.43;101762.31;5053093;28;1323;-78
2023/05/04 11:10:09;;;;;;;;;;;;;;;18.55;51.71;101744.28;5064298;28;1989;-79
2023/05/04 11:12:36;;;;;;;;;;;;;;;18.62;51.81;101743.66;5054706;28;1299;-78
2023/05/04 11:15:10;;;;;;;;;;;;;;;18.78;49.58;101746.41;5052715;28;1276;-78
2023/05/04 11:17:49;;;;;;;;;;;;;;;18.69;50.09;101740.28;5051104;28;1267;-78
2023/05/04 11:20:25;;;;;;;;;;;;;;;18.70;49.66;101736.69;5061368;28;2408;-78
2023/05/04 11:22:50;;;;;;;;;;;;;;;18.76;50.55;101737.88;5050905;28;1193;-78
2023/05/04 11:25:16;;;;;;;;;;;;;;;18.99;49.56;101728.44;5055596;28;1585;-78
2023/05/04 11:27:42;;;;;;;;;;;;;;;19.09;49.36;101717.78;5081019;28;1274;-78
2023/05/04 11:30:07;;;;;;;;;;;;;;;19.14;49.27;101725.19;5053843;28;1894;-78
2023/05/04 11:32:42;;;;;;;;;;;;;;;19.18;47.97;101721.28;5061193;28;1330;-78
2023/05/04 11:35:23;;;;;;;;;;;;;;;19.22;48.81;101720.81;5062431;28;1387;-79
2023/05/04 11:37:49;;;;;;;;;;;;;;;19.18;45.91;101705.50;5062196;28;1295;-78
2023/05/04 11:40:16;;;;;;;;;;;;;;;19.16;46.86;101708.28;5077990;28;1431;-78
2023/05/04 11:42:42;;;;;;;;;;;;;;;19.18;47.08;101703.69;5064805;28;1299;-79
2023/05/04 11:45:16;;;;;;;;;;;;;;;19.29;47.57;101705.19;5070261;28;1265;-78
2023/05/04 11:47:42;;;;;;;;;;;;;;;19.32;48.17;101691.69;5066902;28;1296;-79
2023/05/04 11:50:08;;;;;;;;;;;;;;;19.39;47.24;101698.00;5066700;28;1889;-78
2023/05/04 11:52:35;;;;;;;;;;;;;;;19.46;45.07;101688.47;5063466;28;1192;-78
2023/05/04 11:55:01;;;;;;;;;;;;;;;19.48;45.33;101704.91;5065290;28;1498;-78
2023/05/04 11:57:27;;;;;;;;;;;;;;;19.52;45.15;101698.34;5063305;28;1340;-79
2023/05/04 11:59:52;;;;;;;;;;;;;;;19.55;45.83;101698.00;5067332;28;1332;-80
2023/05/04 12:02:17;;;;;;;;;;;;;;;19.63;44.43;101690.16;5067318;28;1484;-80
2023/05/04 12:04:43;;;;;;;;;;;;;;;19.78;44.86;101705.28;5073243;28;1183;-80
2023/05/04 12:07:08;;;;;;;;;;;;;;;19.72;43.22;101692.78;5063347;28;1627;-79
2023/05/04 12:09:46;;;;;;;;;;;;;;;19.68;44.37;101680.94;5066152;28;1310;-78
2023/05/04 12:12:13;;;;;;;;;;;;;;;19.71;45.43;101680.59;5059964;28;1959;-79
2023/05/04 12:14:45;;;;;;;;;;;;;;;19.82;44.16;101677.66;5060200;28;1180;-79
2023/05/04 12:17:11;;;;;;;;;;;;;;;19.83;45.21;101668.75;5065164;28;1470;-79
2023/05/04 12:19:45;;;;;;;;;;;;;;;19.99;45.50;101667.94;5067245;28;1417;-79
2023/05/04 12:22:11;;;;;;;;;;;;;;;20.21;43.94;101671.69;5064752;28;1219;-80
2023/05/04 12:24:38;;;;;;;;;;;;;;;20.17;43.70;101661.47;5067124;28;1287;-79
2023/05/04 12:27:04;;;;;;;;;;;;;;;20.21;43.30;101666.44;5064894;28;1342;-79
2023/05/04 12:29:29;;;;;;;;;;;;;;;20.22;43.77;101657.53;5054343;28;1351;-79
2023/05/04 12:31:54;;;;;;;;;;;;;;;20.23;43.10;101664.44;5061168;28;1910;-79
2023/05/04 12:34:20;;;;;;;;;;;;;;;20.24;42.37;101656.34;5066992;28;1585;-80
2023/05/04 12:36:45;;;;;;;;;;;;;;;20.33;43.67;101649.28;5062426;28;1221;-79
2023/05/04 12:39:10;;;;;;;;;;;;;;;20.35;44.20;101647.28;5064997;28;1172;-80
2023/05/04 12:41:36;;;;;;;;;;;;;;;20.41;44.29;101644.81;5067245;28;1095;-79
2023/05/04 12:44:01;;;;;;;;;;;;;;;20.53;43.69;101629.47;5069469;28;1219;-80
2023/05/04 12:46:26;;;;;;;;;;;;;;;20.60;43.15;101619.88;5058367;28;1252;-80
2023/05/04 12:48:52;;;;;;;;;;;;;;;20.68;43.01;101627.75;5065779;28;1281;-79